Time;durP1;ratioP1;P1;durP2;ratioP2;P2;SDS_P1;SDS_P2;PMS_P1;PMS_P2;Temp;Humidity;BMP_temperature;BMP_pressure;BME280_temperature;BME280_humidity;BME280_pressure;Samples;Min_cycle;Max_cycle;Signal;HPM_P1;HPM_P2
2023/03/02 00:04:57;;;;;;;5.22;3.38;;;;;;;0.55;nan;102616.44;10186208;29;20040;-87
2023/03/02 00:10:11;;;;;;;4.65;3.63;;;;;;;0.54;nan;102606.91;10186455;29;20427;-87
2023/03/02 00:15:14;;;;;;;4.03;2.65;;;;;;;0.59;nan;102608.22;10204161;29;20150;-88
2023/03/02 00:20:18;;;;;;;2.85;2.28;;;;;;;0.56;nan;102607.06;10186365;29;20151;-87
2023/03/02 00:25:22;;;;;;;1.55;1.38;;;;;;;0.53;nan;102618.91;10204057;29;20095;-87
2023/03/02 00:30:32;;;;;;;4.57;1.95;;;;;;;0.45;nan;102613.84;10203354;29;20098;-88
2023/03/02 00:35:40;;;;;;;1.40;1.30;;;;;;;0.48;nan;102617.59;10188749;29;20044;-87
2023/03/02 00:40:48;;;;;;;4.18;2.03;;;;;;;0.49;nan;102615.91;10194308;29;20575;-87
2023/03/02 00:45:50;;;;;;;3.03;2.08;;;;;;;0.48;nan;102602.13;10202882;29;20052;-87
2023/03/02 00:51:06;;;;;;;4.63;3.20;;;;;;;0.40;nan;102604.81;10180450;29;20397;-87
2023/03/02 00:56:21;;;;;;;2.90;2.10;;;;;;;0.38;nan;102602.09;10188314;29;20055;-87
2023/03/02 01:01:26;;;;;;;3.40;2.55;;;;;;;0.29;nan;102583.25;10170305;29;20115;-86
2023/03/02 01:06:32;;;;;;;2.33;1.70;;;;;;;0.28;nan;102576.28;10184153;29;20044;-87
2023/03/02 01:11:47;;;;;;;4.47;1.83;;;;;;;0.28;nan;102578.88;10187879;29;20057;-87
2023/03/02 01:16:59;;;;;;;4.10;3.45;;;;;;;0.30;nan;102573.09;10203046;29;20075;-87
2023/03/02 01:22:08;;;;;;;3.20;2.42;;;;;;;0.34;nan;102577.72;10187806;29;20079;-87
2023/03/02 01:27:15;;;;;;;1.40;1.23;;;;;;;0.33;nan;102575.00;10199764;29;20076;-87
2023/03/02 01:32:22;;;;;;;8.98;3.08;;;;;;;0.27;nan;102577.97;10183578;29;20622;-87
2023/03/02 01:37:35;;;;;;;2.25;1.30;;;;;;;0.14;nan;102570.84;10183015;29;20142;-87
2023/03/02 01:42:39;;;;;;;2.53;1.60;;;;;;;0.05;nan;102564.88;10200814;29;20047;-87
2023/03/02 01:47:44;;;;;;;4.50;2.28;;;;;;;-0.11;nan;102566.88;10182673;29;20059;-87
2023/03/02 01:53:01;;;;;;;2.20;1.67;;;;;;;-0.21;nan;102562.56;10199635;29;20059;-87
2023/03/02 01:58:14;;;;;;;4.40;1.73;;;;;;;-0.26;nan;102554.41;10170401;29;20328;-87
2023/03/02 02:03:33;;;;;;;4.18;1.55;;;;;;;-0.19;nan;102551.63;10183409;29;20053;-88
2023/03/02 02:08:44;;;;;;;2.50;1.77;;;;;;;-0.15;nan;102544.19;10196492;28;20135;-87
2023/03/02 02:13:59;;;;;;;3.10;2.10;;;;;;;-0.14;nan;102548.56;10197068;29;20523;-88
2023/03/02 02:19:55;;;;;;;1.93;1.20;;;;;;;-0.15;nan;102545.09;10195975;29;20051;-88
2023/03/02 02:25:51;;;;;;;2.17;1.85;;;;;;;-0.23;nan;102541.81;10181428;29;20532;-88
2023/03/02 02:31:25;;;;;;;4.15;3.35;;;;;;;-0.23;nan;102539.25;10127463;29;20055;-88
2023/03/02 02:36:42;;;;;;;2.15;1.80;;;;;;;-0.16;nan;102538.13;10183850;29;20051;-88
2023/03/02 02:42:06;;;;;;;3.42;2.25;;;;;;;-0.15;nan;102537.38;10197215;29;20056;-88
2023/03/02 02:47:24;;;;;;;3.70;1.63;;;;;;;-0.32;nan;102525.56;10166265;29;20924;-89
2023/03/02 02:52:38;;;;;;;4.07;1.55;;;;;;;-0.40;nan;102536.84;10198319;29;20051;-88
2023/03/02 02:57:55;;;;;;;3.13;2.45;;;;;;;-0.42;nan;102523.84;10179991;29;20055;-87
2023/03/02 03:03:27;;;;;;;3.92;3.08;;;;;;;-0.45;nan;102530.38;10178748;29;20558;-87
2023/03/02 03:08:56;;;;;;;1.60;1.35;;;;;;;-0.37;nan;102542.28;10176648;29;20059;-87
2023/03/02 03:14:34;;;;;;;3.80;2.50;;;;;;;-0.44;nan;102539.91;10165731;29;20075;-87
2023/03/02 03:19:42;;;;;;;;;;;;;;;-0.50;nan;102529.06;10178606;29;20043;-87
2023/03/02 03:24:48;;;;;;;1.75;1.63;;;;;;;-0.55;nan;102521.84;10179263;29;20603;-88
2023/03/02 03:29:52;;;;;;;2.78;1.77;;;;;;;-0.63;nan;102529.63;10178179;29;20044;-88
2023/03/02 03:35:15;;;;;;;4.22;1.88;;;;;;;-0.76;nan;102525.06;10181163;29;20519;-87
2023/03/02 03:40:25;;;;;;;2.50;1.60;;;;;;;-0.80;nan;102523.84;10180303;29;20051;-88
2023/03/02 03:45:30;;;;;;;1.52;1.42;;;;;;;-0.85;nan;102534.53;10196548;29;20040;-87
2023/03/02 03:50:38;;;;;;;2.78;1.85;;;;;;;-0.97;nan;102524.91;10180171;29;20075;-87
2023/03/02 03:55:46;;;;;;;1.40;0.97;;;;;;;-1.12;nan;102524.41;10181577;29;20051;-87
2023/03/02 04:01:09;;;;;;;2.20;1.58;;;;;;;-1.07;nan;102523.19;10187940;29;20066;-87
2023/03/02 04:06:17;;;;;;;1.83;1.67;;;;;;;-1.01;nan;102520.22;10181154;29;20060;-87
2023/03/02 04:11:22;;;;;;;0.93;0.88;;;;;;;-1.10;nan;102521.97;10194650;29;20138;-87
2023/03/02 04:16:28;;;;;;;1.35;1.25;;;;;;;-1.07;nan;102529.97;10193116;29;20043;-88
2023/03/02 04:21:46;;;;;;;1.33;1.23;;;;;;;-1.08;nan;102525.59;10194476;29;20063;-87
2023/03/02 04:26:52;;;;;;;1.52;1.38;;;;;;;-1.04;nan;102527.66;10177038;29;20444;-87
2023/03/02 04:31:59;;;;;;;3.42;1.88;;;;;;;-1.15;nan;102543.78;10187445;29;20064;-87
2023/03/02 04:37:02;;;;;;;1.17;1.10;;;;;;;-1.40;nan;102538.91;10180647;29;20044;-87
2023/03/02 04:42:09;;;;;;;0.60;0.60;;;;;;;-1.43;nan;102536.06;10199346;29;20690;-87
2023/03/02 04:47:26;;;;;;;1.65;1.52;;;;;;;-1.61;nan;102543.88;10184014;29;20056;-87
2023/03/02 04:53:01;;;;;;;0.88;0.88;;;;;;;-1.55;nan;102537.50;10185943;29;20043;-88
2023/03/02 04:58:36;;;;;;;2.45;1.58;;;;;;;-1.57;nan;102546.72;10172354;29;20047;-88
2023/03/02 05:03:41;;;;;;;1.20;0.98;;;;;;;-1.63;nan;102545.38;10185766;29;20059;-87
2023/03/02 05:08:51;;;;;;;1.77;1.52;;;;;;;-1.57;nan;102549.31;10183060;29;20044;-87
2023/03/02 05:14:02;;;;;;;2.30;1.92;;;;;;;-1.53;nan;102548.81;10173668;29;20056;-89
2023/03/02 05:19:29;;;;;;;2.80;1.80;;;;;;;-1.69;nan;102555.06;10184418;29;20040;-88
2023/03/02 05:24:41;;;;;;;5.28;1.60;;;;;;;-1.84;nan;102563.91;10182630;29;20059;-88
2023/03/02 05:29:49;;;;;;;5.50;1.50;;;;;;;-1.80;nan;102555.75;10182857;29;20052;-87
2023/03/02 05:35:04;;;;;;;5.25;1.13;;;;;;;-1.82;nan;102554.66;10202121;29;20047;-87
2023/03/02 05:40:26;;;;;;;1.20;0.80;;;;;;;-1.78;nan;102556.78;10201702;29;20138;-88
2023/03/02 05:45:35;;;;;;;6.15;1.30;;;;;;;-1.86;nan;102558.63;10181385;29;20048;-88
2023/03/02 05:50:36;;;;;;;1.70;1.48;;;;;;;-1.91;nan;102558.94;10182570;29;20067;-85
2023/03/02 05:55:38;;;;;;;1.40;1.23;;;;;;;-1.88;nan;102549.84;10182174;29;20500;-86
2023/03/02 06:00:40;;;;;;;1.25;1.15;;;;;;;-1.88;nan;102541.25;10182963;29;20051;-86
2023/03/02 06:05:42;;;;;;;1.58;1.38;;;;;;;-1.93;nan;102561.34;10203314;29;20044;-86
2023/03/02 06:10:44;;;;;;;1.52;1.30;;;;;;;-1.87;nan;102553.34;10198924;29;20326;-87
2023/03/02 06:15:46;;;;;;;1.23;1.13;;;;;;;-1.82;nan;102557.22;10198159;29;20043;-85
2023/03/02 06:20:51;;;;;;;4.20;2.33;;;;;;;-1.86;nan;102555.13;10198631;29;20055;-86
2023/03/02 06:25:53;;;;;;;2.15;1.17;;;;;;;-1.82;nan;102541.81;10198442;29;20584;-86
2023/03/02 06:30:55;;;;;;;0.93;0.90;;;;;;;-1.85;nan;102555.28;10193162;29;20083;-86
2023/03/02 06:36:01;;;;;;;4.65;0.77;;;;;;;-1.86;nan;102558.63;10203131;29;20056;-87
2023/03/02 06:41:19;;;;;;;1.90;1.00;;;;;;;-2.21;nan;102563.81;10190718;29;20095;-86
2023/03/02 06:46:20;;;;;;;3.05;1.52;;;;;;;-2.31;nan;102563.69;10179963;29;20523;-86
2023/03/02 06:51:22;;;;;;;2.95;1.33;;;;;;;-2.25;nan;102566.84;10197922;29;20067;-85
2023/03/02 06:56:24;;;;;;;1.20;1.10;;;;;;;-2.27;nan;102568.34;10196894;29;20047;-85
2023/03/02 07:01:25;;;;;;;1.92;1.77;;;;;;;-2.11;nan;102560.47;10179713;29;20091;-85
2023/03/02 07:06:27;;;;;;;0.80;0.47;;;;;;;-1.98;nan;102560.91;10198876;29;20054;-86
2023/03/02 07:11:29;;;;;;;1.40;1.30;;;;;;;-2.12;nan;102563.81;10197601;29;20052;-85
2023/03/02 07:16:32;;;;;;;4.53;2.65;;;;;;;-2.24;nan;102567.75;10178179;29;20206;-86
2023/03/02 07:21:34;;;;;;;1.65;1.55;;;;;;;-2.19;nan;102552.03;10191529;28;20055;-85
2023/03/02 07:26:36;;;;;;;2.78;2.17;;;;;;;-2.10;nan;102554.59;10195771;29;20525;-85
2023/03/02 07:31:37;;;;;;;1.73;1.63;;;;;;;-2.07;nan;102554.91;10178577;29;20079;-85
2023/03/02 07:36:39;;;;;;;2.50;2.08;;;;;;;-2.19;nan;102551.13;10198281;29;20889;-86
2023/03/02 07:41:41;;;;;;;3.25;2.00;;;;;;;-2.10;nan;102552.03;10194981;29;20063;-86
2023/03/02 07:46:42;;;;;;;4.28;2.05;;;;;;;-2.04;nan;102555.19;10193055;29;20048;-86
2023/03/02 07:51:44;;;;;;;2.22;1.65;;;;;;;-2.02;nan;102548.53;10178942;29;20135;-84
2023/03/02 07:56:46;;;;;;;1.27;1.17;;;;;;;-1.84;nan;102545.91;10193372;29;20047;-85
2023/03/02 08:01:47;;;;;;;1.00;0.95;;;;;;;-1.78;nan;102538.81;10195308;29;20057;-85
2023/03/02 08:06:50;;;;;;;1.95;1.08;;;;;;;-1.80;nan;102545.47;10194182;29;20052;-85
2023/03/02 08:11:52;;;;;;;1.55;1.45;;;;;;;-1.71;nan;102554.03;10194650;29;20083;-86
2023/03/02 08:16:53;;;;;;;1.13;1.02;;;;;;;-1.66;nan;102533.91;10181662;29;20894;-85
2023/03/02 08:21:55;;;;;;;1.67;1.30;;;;;;;-1.64;nan;102535.84;10197713;29;20513;-86
2023/03/02 08:27:01;;;;;;;6.18;2.72;;;;;;;-1.56;nan;102535.69;10185016;29;20047;-86
2023/03/02 08:32:03;;;;;;;1.95;1.75;;;;;;;-1.62;nan;102534.34;10203988;29;20059;-85
2023/03/02 08:37:05;;;;;;;3.40;1.23;;;;;;;-1.45;nan;102535.94;10205883;29;20055;-85
2023/03/02 08:42:06;;;;;;;0.57;0.57;;;;;;;-1.34;nan;102536.91;10203015;29;20440;-85
2023/03/02 08:47:08;;;;;;;1.40;1.30;;;;;;;-1.25;nan;102524.03;10202669;29;20583;-86
2023/03/02 08:52:12;;;;;;;1.30;1.20;;;;;;;-1.42;nan;102531.06;10201837;29;20543;-86
2023/03/02 08:57:14;;;;;;;1.20;0.93;;;;;;;-1.39;nan;102527.88;10185760;29;20091;-86
2023/03/02 09:02:16;;;;;;;1.83;1.52;;;;;;;-1.28;nan;102527.22;10203424;29;20079;-85
2023/03/02 09:07:17;;;;;;;1.45;1.35;;;;;;;-1.26;nan;102512.84;10190222;29;20142;-86
2023/03/02 09:12:19;;;;;;;2.17;1.70;;;;;;;-1.06;nan;102508.63;10210991;29;20058;-85
2023/03/02 09:17:21;;;;;;;2.38;1.92;;;;;;;-1.26;nan;102512.84;10208254;29;20051;-86
2023/03/02 09:22:22;;;;;;;2.60;1.52;;;;;;;-1.05;nan;102505.31;10201573;29;20086;-86
2023/03/02 09:27:24;;;;;;;2.47;1.23;;;;;;;-0.99;nan;102510.09;10205090;29;20044;-86
2023/03/02 09:32:26;;;;;;;1.67;1.58;;;;;;;-0.95;nan;102502.78;10183604;29;20044;-86
2023/03/02 09:37:28;;;;;;;2.90;2.30;;;;;;;-0.82;nan;102503.94;10201121;29;20087;-86
2023/03/02 09:42:41;;;;;;;1.27;1.17;;;;;;;-0.93;nan;102511.56;10201468;29;20142;-85
2023/03/02 09:48:09;;;;;;;1.00;0.95;;;;;;;-0.81;nan;102516.00;10200855;29;20051;-85
2023/03/02 09:53:41;;;;;;;5.93;2.35;;;;;;;-0.64;nan;102517.56;10199346;29;20636;-86
2023/03/02 09:58:53;;;;;;;1.83;1.70;;;;;;;-0.66;nan;102516.47;10197998;29;20118;-85
2023/03/02 10:04:02;;;;;;;3.38;2.10;;;;;;;-0.52;nan;102520.31;10200044;29;20067;-86
2023/03/02 10:09:03;;;;;;;1.73;1.60;;;;;;;-0.44;nan;102520.22;10191857;29;20540;-86
2023/03/02 10:14:19;;;;;;;0.95;0.88;;;;;;;-0.40;nan;102526.56;10181647;29;20056;-86
2023/03/02 10:19:28;;;;;;;2.05;1.02;;;;;;;-0.24;nan;102522.00;10201054;29;20493;-86
2023/03/02 10:24:50;;;;;;;1.70;1.38;;;;;;;-0.22;nan;102520.47;10195877;29;20645;-86
2023/03/02 10:29:58;;;;;;;2.72;1.98;;;;;;;0.01;nan;102525.84;10197690;29;20040;-86
2023/03/02 10:35:11;;;;;;;2.45;1.42;;;;;;;0.06;nan;102528.06;10181064;29;20528;-85
2023/03/02 10:40:37;;;;;;;1.33;1.23;;;;;;;0.19;nan;102523.97;10197142;29;20048;-86
2023/03/02 10:45:39;;;;;;;3.13;2.15;;;;;;;0.01;nan;102524.16;10198920;29;20055;-85
2023/03/02 10:50:42;;;;;;;2.35;1.52;;;;;;;0.19;nan;102523.97;10205191;29;20417;-86
2023/03/02 10:55:47;;;;;;;1.80;1.48;;;;;;;0.28;nan;102515.34;10200984;29;20631;-86
2023/03/02 11:01:13;;;;;;;1.65;1.42;;;;;;;0.13;nan;102516.59;10196046;29;20427;-86
2023/03/02 11:06:18;;;;;;;2.88;2.08;;;;;;;0.46;nan;102512.56;10194133;29;20051;-85
2023/03/02 11:11:23;;;;;;;1.48;1.33;;;;;;;0.40;nan;102497.47;10179805;29;20424;-85
2023/03/02 11:16:30;;;;;;;1.40;1.25;;;;;;;0.47;nan;102497.22;10178650;29;20048;-85
2023/03/02 11:21:50;;;;;;;4.07;1.58;;;;;;;0.30;nan;102500.00;10197271;29;20051;-86
2023/03/02 11:27:01;;;;;;;1.45;1.15;;;;;;;0.39;nan;102499.91;10187143;29;20056;-86
2023/03/02 11:32:33;;;;;;;5.50;1.90;;;;;;;0.57;nan;102500.56;10193728;29;20086;-85
2023/03/02 11:37:56;;;;;;;1.20;0.93;;;;;;;0.67;nan;102503.16;10164753;29;20110;-86
2023/03/02 11:43:03;;;;;;;0.80;0.77;;;;;;;0.75;nan;102493.50;10188466;29;20059;-87
2023/03/02 11:48:16;;;;;;;1.40;0.98;;;;;;;0.71;nan;102497.50;10177805;29;20058;-87
2023/03/02 11:53:19;;;;;;;2.03;1.17;;;;;;;0.73;nan;102505.38;10184964;29;20070;-86
2023/03/02 11:58:25;;;;;;;0.80;0.57;;;;;;;0.82;nan;102499.28;10203434;29;20071;-85
2023/03/02 12:03:27;;;;;;;0.82;0.82;;;;;;;0.79;nan;102500.72;10192355;29;20767;-87
2023/03/02 12:08:34;;;;;;;1.05;0.98;;;;;;;0.80;nan;102495.69;10205688;28;20044;-86
2023/03/02 12:13:38;;;;;;;2.63;1.35;;;;;;;0.97;nan;102491.94;10203306;29;20781;-86
2023/03/02 12:18:44;;;;;;;1.42;1.30;;;;;;;1.06;nan;102484.06;10208949;29;20058;-85
2023/03/02 12:23:49;;;;;;;1.60;1.35;;;;;;;1.00;nan;102474.13;10204122;29;20055;-87
2023/03/02 12:29:02;;;;;;;1.58;1.08;;;;;;;0.92;nan;102464.88;10185404;29;20393;-86
2023/03/02 12:34:23;;;;;;;0.82;0.70;;;;;;;0.96;nan;102472.09;10198571;29;20087;-87
2023/03/02 12:39:37;;;;;;;3.00;1.50;;;;;;;0.99;nan;102468.84;10201171;29;20062;-86
2023/03/02 12:45:02;;;;;;;2.72;1.83;;;;;;;0.88;nan;102467.97;10201625;29;20830;-83
2023/03/02 12:50:16;;;;;;;0.90;0.73;;;;;;;1.14;nan;102464.03;10193049;29;20539;-87
2023/03/02 12:55:18;;;;;;;2.58;1.30;;;;;;;1.18;nan;102459.25;10199766;29;20233;-86
2023/03/02 13:00:37;;;;;;;1.30;0.73;;;;;;;1.16;nan;102460.81;10183746;29;20055;-86
2023/03/02 13:05:41;;;;;;;1.25;1.08;;;;;;;1.42;nan;102439.69;10202974;29;20504;-86
2023/03/02 13:10:54;;;;;;;1.15;0.95;;;;;;;1.69;nan;102422.03;10189843;29;20052;-87
2023/03/02 13:16:00;;;;;;;1.88;1.23;;;;;;;1.66;nan;102428.66;10192973;29;20181;-88
2023/03/02 13:21:04;;;;;;;2.00;1.30;;;;;;;1.70;nan;102425.53;10169176;29;20118;-87
2023/03/02 13:26:35;;;;;;;1.23;1.13;;;;;;;1.75;nan;102425.09;10183544;29;20066;-87
2023/03/02 13:31:41;;;;;;;1.15;0.98;;;;;;;1.85;nan;102421.56;10183765;29;20535;-86
2023/03/02 13:36:50;;;;;;;2.08;1.30;;;;;;;1.75;nan;102409.59;10185848;29;20054;-87
2023/03/02 13:41:54;;;;;;;3.90;1.73;;;;;;;1.79;nan;102404.66;10199229;29;20055;-86
2023/03/02 13:47:22;;;;;;;1.53;1.17;;;;;;;2.01;nan;102399.50;10182388;29;20130;-86
2023/03/02 13:52:28;;;;;;;2.50;1.02;;;;;;;2.13;nan;102397.88;10183706;29;20095;-87
2023/03/02 13:57:31;;;;;;;1.10;0.52;;;;;;;1.90;nan;102391.81;10198382;29;20058;-86
2023/03/02 14:02:36;;;;;;;0.90;0.70;;;;;;;2.07;nan;102384.47;10198046;29;20547;-86
2023/03/02 14:07:39;;;;;;;2.17;1.02;;;;;;;2.18;nan;102369.78;10183668;29;20048;-87
2023/03/02 14:12:45;;;;;;;3.70;0.85;;;;;;;2.11;nan;102378.78;10196967;29;20087;-86
2023/03/02 14:17:52;;;;;;;1.08;0.93;;;;;;;1.86;nan;102363.97;10151866;29;20053;-87
2023/03/02 14:23:09;;;;;;;2.20;1.25;;;;;;;2.03;nan;102356.63;10198762;29;20074;-87
2023/03/02 14:28:47;;;;;;;2.40;1.50;;;;;;;2.19;nan;102341.50;10164829;29;20221;-87
2023/03/02 14:34:24;;;;;;;3.28;1.90;;;;;;;2.25;nan;102336.81;10174169;29;20115;-87
2023/03/02 14:40:20;;;;;;;0.75;0.75;;;;;;;2.03;nan;102328.19;10054304;29;20049;-87
2023/03/02 14:46:10;;;;;;;1.67;1.10;;;;;;;2.11;nan;102332.25;10059212;29;20143;-87
2023/03/02 14:52:33;;;;;;;4.00;2.10;;;;;;;2.14;nan;102326.44;10098264;29;20078;-87
2023/03/02 15:03:19;;;;;;;1.23;0.98;;;;;;;1.93;nan;102329.16;10152562;29;20052;-88
2023/03/02 15:08:48;;;;;;;0.68;0.63;;;;;;;1.88;nan;102320.16;10141401;29;20063;-87
2023/03/02 15:14:49;;;;;;;2.08;1.40;;;;;;;2.04;nan;102325.72;10105461;29;20060;-89
2023/03/02 15:27:06;;;;;;;2.25;1.83;;;;;;;2.07;nan;102333.72;10147933;29;20056;-87
2023/03/02 15:32:44;;;;;;;1.42;1.13;;;;;;;2.20;nan;102329.47;10141044;29;20048;-88
2023/03/02 15:44:29;;;;;;;3.17;2.30;;;;;;;2.25;nan;102331.63;10029098;29;20041;-88
2023/03/02 15:49:33;;;;;;;2.00;1.15;;;;;;;2.05;nan;102334.38;10032662;29;20061;-89
2023/03/02 15:54:56;;;;;;;2.92;1.05;;;;;;;1.90;nan;102337.56;10019362;29;20079;-86
2023/03/02 16:20:28;;;;;;;3.88;2.03;;;;;;;1.84;nan;102321.59;10338283;23;20154;-89
2023/03/02 16:26:20;;;;;;;;;;;;;;;1.80;nan;102329.88;10189373;29;20055;-89
2023/03/02 16:32:05;;;;;;;4.78;2.25;;;;;;;1.72;nan;102323.25;10069192;29;20329;-90
2023/03/02 16:44:15;;;;;;;3.63;2.88;;;;;;;1.72;nan;102305.16;10088631;29;20086;-90
2023/03/02 16:49:59;;;;;;;3.42;2.10;;;;;;;1.68;nan;102313.44;10226308;23;20126;-88
2023/03/02 16:55:07;;;;;;;1.73;1.58;;;;;;;1.60;nan;102333.50;10192933;29;20138;-89
2023/03/02 17:00:14;;;;;;;4.00;2.75;;;;;;;1.55;nan;102333.16;10192251;29;20139;-89
2023/03/02 17:05:23;;;;;;;4.15;2.83;;;;;;;1.62;nan;102334.53;10180755;29;20047;-90
2023/03/02 17:10:57;;;;;;;;;;;;;;;;;;;;;
2023/03/02 17:22:38;;;;;;;2.15;1.95;;;;;;;1.51;nan;102350.88;10189121;29;20103;-90
2023/03/02 17:41:36;;;;;;;1.92;1.42;;;;;;;1.49;nan;102370.50;10060176;29;20104;-89
2023/03/02 17:47:55;;;;;;;;;;;;;;;;;;;;;
2023/03/02 17:54:23;;;;;;;3.40;2.58;;;;;;;1.42;nan;102367.41;10153807;29;20049;-91
2023/03/02 18:00:32;;;;;;;;;;;;;;;;;;;;;
2023/03/02 18:07:00;;;;;;;;;;;;;;;;;;;;;
2023/03/02 18:12:47;;;;;;;4.00;3.17;;;;;;;1.29;nan;102369.84;10128263;29;20053;-89
2023/03/02 18:18:45;;;;;;;3.50;2.47;;;;;;;1.33;nan;102381.28;10088566;29;20341;-91
2023/03/02 18:24:50;;;;;;;5.07;2.38;;;;;;;1.25;nan;102378.09;10112919;29;20393;-89
2023/03/02 18:30:10;;;;;;;8.98;4.32;;;;;;;1.19;nan;102382.78;10114154;29;20529;-88
2023/03/02 18:41:01;;;;;;;4.40;2.92;;;;;;;1.17;nan;102384.31;10220711;23;20558;-88
2023/03/02 19:04:38;;;;;;;6.82;3.40;;;;;;;1.22;nan;102389.06;10161341;29;20052;-88
2023/03/02 19:16:27;;;;;;;11.93;4.07;;;;;;;1.15;nan;102385.88;10264451;23;20424;-89
2023/03/02 19:22:23;;;;;;;4.88;2.33;;;;;;;1.16;nan;102386.00;10192794;28;20055;-88
2023/03/02 19:34:28;;;;;;;4.07;2.88;;;;;;;1.26;nan;102392.78;10161568;29;20071;-89
2023/03/02 19:46:51;;;;;;;2.85;2.00;;;;;;;1.31;nan;102393.19;10028613;29;20449;-89
2023/03/02 19:52:38;;;;;;;4.55;3.00;;;;;;;1.34;nan;102390.84;10186225;29;20509;-89
2023/03/02 19:58:23;;;;;;;5.60;3.58;;;;;;;1.32;nan;102393.31;10159779;29;20070;-90
2023/03/02 20:03:57;;;;;;;3.03;2.60;;;;;;;1.21;nan;102397.56;10170148;29;20416;-89
2023/03/02 20:09:54;;;;;;;;;;;;;;;;;;;;;
2023/03/02 20:22:24;;;;;;;6.20;2.47;;;;;;;0.72;nan;102403.88;10203053;29;20055;-89
2023/03/02 20:27:52;;;;;;;1.85;1.05;;;;;;;0.61;nan;102415.00;10194842;29;20141;-89
2023/03/02 20:33:34;;;;;;;1.00;0.73;;;;;;;0.58;nan;102414.75;10182263;29;20043;-89
2023/03/02 20:38:50;;;;;;;4.43;2.47;;;;;;;0.53;nan;102414.34;10190135;29;20067;-89
2023/03/02 20:44:14;;;;;;;1.98;1.17;;;;;;;0.44;nan;102422.22;10179105;29;20155;-87
2023/03/02 20:49:21;;;;;;;1.55;1.23;;;;;;;0.55;nan;102415.38;10171231;29;20052;-88
2023/03/02 20:54:30;;;;;;;1.85;1.40;;;;;;;0.61;nan;102409.84;10184207;29;20052;-89
2023/03/02 20:59:35;;;;;;;;;;;;;;;0.62;nan;102412.53;10199558;29;20108;-89
2023/03/02 21:04:41;;;;;;;2.35;1.80;;;;;;;0.63;nan;102411.78;10186649;29;20013;-88
2023/03/02 21:09:56;;;;;;;3.47;1.35;;;;;;;0.59;nan;102407.13;10187224;29;20048;-88
2023/03/02 21:15:04;;;;;;;0.82;0.80;;;;;;;0.65;nan;102399.00;10185936;29;20058;-87
2023/03/02 21:20:12;;;;;;;4.65;1.60;;;;;;;0.72;nan;102415.88;10177252;29;20052;-89
2023/03/02 21:25:19;;;;;;;2.30;1.67;;;;;;;0.70;nan;102408.00;10200006;29;20545;-89
2023/03/02 21:30:33;;;;;;;2.13;1.65;;;;;;;0.69;nan;102406.19;10215089;29;20052;-89
2023/03/02 21:35:45;;;;;;;1.42;1.25;;;;;;;0.50;nan;102402.09;10196607;29;20123;-88
2023/03/02 21:40:48;;;;;;;3.90;1.25;;;;;;;0.55;nan;102405.06;10187939;29;20579;-88
2023/03/02 21:45:57;;;;;;;1.50;1.08;;;;;;;0.55;nan;102394.75;10189866;29;20063;-89
2023/03/02 21:56:57;;;;;;;4.25;2.60;;;;;;;0.56;nan;102395.69;10187465;29;20046;-88
2023/03/02 22:02:16;;;;;;;1.60;1.13;;;;;;;0.62;nan;102388.44;10173945;29;20048;-88
2023/03/02 22:07:33;;;;;;;;;;;;;;;;;;;;;
2023/03/02 22:12:44;;;;;;;3.72;1.67;;;;;;;0.71;nan;102399.50;10189084;29;20073;-90
2023/03/02 22:17:49;;;;;;;2.50;2.28;;;;;;;0.80;nan;102396.81;10186108;29;20048;-88
2023/03/02 22:22:58;;;;;;;4.55;1.75;;;;;;;0.83;nan;102397.06;10206746;29;20465;-89
2023/03/02 22:28:00;;;;;;;2.30;1.67;;;;;;;0.83;nan;102397.94;10175599;29;20143;-90
2023/03/02 22:33:31;;;;;;;;;;;;;;;;;;;;;
2023/03/02 22:38:48;;;;;;;1.23;0.98;;;;;;;0.83;nan;102397.94;10183895;29;20264;-89
2023/03/02 22:44:09;;;;;;;3.10;2.72;;;;;;;0.82;nan;102400.41;10170295;29;20135;-89
2023/03/02 22:49:20;;;;;;;2.65;1.90;;;;;;;0.84;nan;102391.09;10194215;29;20048;-89
2023/03/02 22:54:36;;;;;;;5.65;2.70;;;;;;;0.81;nan;102396.94;10184862;29;20572;-89
2023/03/02 22:59:39;;;;;;;4.40;2.65;;;;;;;0.77;nan;102389.69;10181993;29;20040;-89
2023/03/02 23:05:37;;;;;;;2.42;1.67;;;;;;;0.81;nan;102393.44;10163310;29;20064;-88
2023/03/02 23:11:00;;;;;;;1.98;1.42;;;;;;;0.82;nan;102387.50;10173907;29;20145;-89
2023/03/02 23:16:22;;;;;;;4.45;2.00;;;;;;;0.79;nan;102380.41;10187386;29;20094;-89
2023/03/02 23:21:37;;;;;;;5.25;3.60;;;;;;;0.76;nan;102390.47;10170627;29;20044;-89
2023/03/02 23:26:45;;;;;;;4.63;2.90;;;;;;;0.72;nan;102378.09;10188044;29;20063;-90
2023/03/02 23:31:50;;;;;;;3.50;2.03;;;;;;;0.62;nan;102378.13;10205611;29;20086;-89
2023/03/02 23:37:04;;;;;;;2.97;2.17;;;;;;;0.55;nan;102376.72;10179728;29;20146;-89
2023/03/02 23:42:08;;;;;;;1.63;1.52;;;;;;;0.58;nan;102386.38;10207578;29;20059;-88
2023/03/02 23:47:14;;;;;;;6.45;2.75;;;;;;;0.60;nan;102393.47;10202851;29;20576;-88
2023/03/02 23:52:24;;;;;;;5.38;3.33;;;;;;;0.60;nan;102392.56;10218330;29;20500;-89
2023/03/02 23:57:31;;;;;;;4.35;2.65;;;;;;;0.58;nan;102378.66;10194172;29;20154;-88
